Mc Indoe Falls, Vermont
Current Conditions -  °F | °C
As of 3:55 AM on Wednesday 26 Nov 2014 (Local Time) from KCDA Reporting Station
Clear Clear  
Wind Chill: 25°   Ceiling: Unl
Heat Index: 34°   Visibility: 10mi
Dew Point: 19°   Wind: 12mph
Humidity: 55%   Direction: 240°WSW
Pressure: 30.18"   Gusts: NA
Location:  44.2588°N, 72.0585°W
Report Text: KCDA 260855Z AUTO 24010KT 10SM CLR 01/M07 A3018 RMK AO2 T00111070
Loading
Personal Weather Stations






























Interactive Weather Map New forecast layout! Learn more

10-Day Weather Forecast

Advertisements
Track Severe Weather on mobile